Time;durP1;ratioP1;P1;durP2;ratioP2;P2;SDS_P1;SDS_P2;PMS_P1;PMS_P2;Temp;Humidity;BMP_temperature;BMP_pressure;BME280_temperature;BME280_humidity;BME280_pressure;Samples;Min_cycle;Max_cycle;Signal;HPM_P1;HPM_P2
2023/03/01 00:01:50;;;;;;;15.90;10.10;;;;;;;-2.52;68.76;100148.27;107576;1256;73682;-39
2023/03/01 00:04:19;;;;;;;14.10;9.60;;;;;;;-2.47;68.60;100147.41;107607;1254;60339;-39
2023/03/01 00:06:49;;;;;;;16.80;10.00;;;;;;;-2.38;68.34;100143.23;107580;1254;60556;-39
2023/03/01 00:09:18;;;;;;;16.30;9.90;;;;;;;-2.34;68.09;100133.86;107591;1254;75189;-39
2023/03/01 00:11:47;;;;;;;14.60;9.70;;;;;;;-2.32;68.17;100132.13;107659;1254;70088;-39
2023/03/01 00:14:17;;;;;;;17.70;10.50;;;;;;;-2.30;68.02;100136.65;106822;1254;1003667;-39
2023/03/01 00:16:46;;;;;;;15.80;10.30;;;;;;;-2.29;67.76;100136.56;107582;1254;60726;-39
2023/03/01 00:19:19;;;;;;;15.20;10.50;;;;;;;-2.32;67.77;100136.48;107591;1254;60500;-39
2023/03/01 00:21:47;;;;;;;15.40;10.60;;;;;;;-2.38;68.00;100131.92;107597;1254;75068;-39
2023/03/01 00:24:16;;;;;;;15.80;10.50;;;;;;;-2.46;68.13;100126.55;107614;1254;68949;-40
2023/03/01 00:26:46;;;;;;;14.60;9.20;;;;;;;-2.49;68.40;100119.47;107627;1256;73616;-40
2023/03/01 00:29:14;;;;;;;17.80;10.10;;;;;;;-2.46;68.42;100117.80;107551;1254;60648;-40
2023/03/01 00:31:43;;;;;;;18.20;10.10;;;;;;;-2.46;68.35;100115.83;107437;1254;60511;-40
2023/03/01 00:34:12;;;;;;;13.90;9.70;;;;;;;-2.50;68.51;100101.27;107548;1254;74902;-40
2023/03/01 00:36:41;;;;;;;17.10;11.90;;;;;;;-2.54;68.40;100094.43;107463;1254;69898;-40
2023/03/01 00:39:14;;;;;;;16.70;10.90;;;;;;;-2.58;68.64;100099.23;107461;1254;73732;-40
2023/03/01 00:41:44;;;;;;;18.10;10.70;;;;;;;-2.62;68.66;100094.06;107542;1254;61756;-40
2023/03/01 00:44:15;;;;;;;15.30;10.20;;;;;;;-2.61;68.83;100081.76;106000;1254;1003547;-40
2023/03/01 00:46:44;;;;;;;15.50;10.20;;;;;;;-2.58;68.69;100075.71;107585;1254;75155;-40
2023/03/01 00:49:17;;;;;;;16.50;10.40;;;;;;;-2.63;68.73;100079.78;107591;1257;69803;-40
2023/03/01 00:51:45;;;;;;;16.60;10.30;;;;;;;-2.66;68.91;100078.64;107587;1254;73940;-40
2023/03/01 00:54:14;;;;;;;16.90;10.60;;;;;;;-2.69;68.98;100074.59;107606;1254;60766;-40
2023/03/01 00:56:43;;;;;;;17.30;10.10;;;;;;;-2.72;68.98;100069.38;107644;1257;60361;-40
2023/03/01 00:59:12;;;;;;;15.60;9.70;;;;;;;-2.72;69.17;100070.00;107563;1254;75045;-40
2023/03/01 01:01:40;;;;;;;15.20;8.40;;;;;;;-2.69;69.22;100075.08;107642;1254;69961;-40
2023/03/01 01:04:11;;;;;;;15.70;10.30;;;;;;;-2.71;69.24;100069.15;107620;1254;73843;-40
2023/03/01 01:06:43;;;;;;;19.20;10.60;;;;;;;-2.75;69.37;100069.06;107600;1254;60670;-40
2023/03/01 01:09:18;;;;;;;;;;;;;;;-2.78;69.39;100073.78;107662;1254;61768;-40
2023/03/01 01:11:49;;;;;;;18.10;10.70;;;;;;;-2.85;69.73;100068.41;107477;1254;75067;-40
2023/03/01 01:14:18;;;;;;;14.30;10.20;;;;;;;-2.88;69.91;100068.13;107097;1258;422164;-39
2023/03/01 01:18:15;;;;;;;16.70;10.80;;;;;;;-2.76;69.96;100053.04;104391;1289;600180;-40
2023/03/01 01:20:44;;;;;;;13.70;9.60;;;;;;;-2.76;70.03;100051.60;106652;1266;60481;-39
2023/03/01 01:23:13;;;;;;;16.40;10.80;;;;;;;-2.79;69.95;100059.12;106698;1266;61734;-39
2023/03/01 01:25:45;;;;;;;15.40;10.40;;;;;;;-2.82;69.86;100057.61;106697;1265;73213;-39
2023/03/01 01:28:13;;;;;;;17.20;11.00;;;;;;;-2.86;69.93;100056.31;106748;1267;69624;-39
2023/03/01 01:30:42;;;;;;;15.40;10.00;;;;;;;-2.84;70.16;100052.45;106779;1267;73858;-39
2023/03/01 01:33:12;;;;;;;17.60;10.30;;;;;;;-2.80;70.20;100043.41;106694;1263;59601;-39
2023/03/01 01:35:41;;;;;;;17.80;11.20;;;;;;;-2.81;70.00;100038.09;106830;1264;61615;-39
2023/03/01 01:38:09;;;;;;;18.20;11.10;;;;;;;-2.86;70.46;100030.48;106877;1263;71566;-40
2023/03/01 01:40:48;;;;;;;14.50;9.60;;;;;;;-2.90;70.48;100027.89;106758;1263;70152;-40
2023/03/01 01:43:48;;;;;;;15.40;10.40;;;;;;;-2.93;70.87;100025.15;105995;1264;1002870;-40
2023/03/01 01:46:28;;;;;;;17.00;10.90;;;;;;;-2.99;70.77;100026.66;105960;1263;1003638;-40
2023/03/01 01:49:03;;;;;;;18.40;10.50;;;;;;;-2.97;70.87;100026.09;106799;1264;61533;-40
2023/03/01 01:51:38;;;;;;;16.90;10.50;;;;;;;-2.94;70.89;100017.67;106877;1269;73938;-40
2023/03/01 01:54:12;;;;;;;;;;;;;;;-2.94;71.18;100015.77;106836;1268;69951;-40
2023/03/01 01:56:42;;;;;;;16.60;10.70;;;;;;;-3.04;71.19;100012.52;106832;1264;73589;-40
2023/03/01 01:59:10;;;;;;;;;;;;;;;-3.11;71.31;100016.02;106826;1264;59742;-40
2023/03/01 02:01:39;;;;;;;15.70;10.50;;;;;;;-3.16;71.80;100007.11;106088;1263;1003166;-40
2023/03/01 02:04:07;;;;;;;18.40;10.40;;;;;;;-3.17;71.74;99999.05;106841;1263;74266;-40
2023/03/01 02:06:38;;;;;;;18.00;10.70;;;;;;;-3.13;71.56;99994.05;106810;1263;70129;-40
2023/03/01 02:09:08;;;;;;;16.30;10.90;;;;;;;-3.11;71.77;99990.19;106583;1263;75084;-39
2023/03/01 02:11:37;;;;;;;17.30;11.10;;;;;;;-3.11;71.78;99986.27;106736;1263;59975;-40
2023/03/01 02:14:05;;;;;;;18.70;11.60;;;;;;;-3.12;71.82;99983.61;106765;1264;61280;-40
2023/03/01 02:16:34;;;;;;;20.20;11.60;;;;;;;-3.15;71.95;99974.34;106846;1263;74287;-40
2023/03/01 02:19:04;;;;;;;16.80;11.50;;;;;;;-3.15;71.90;99976.48;106839;1263;68626;-40
2023/03/01 02:21:58;;;;;;;16.90;10.80;;;;;;;-3.09;72.04;99973.91;106804;1263;73934;-40
2023/03/01 02:24:50;;;;;;;18.20;11.70;;;;;;;-3.06;72.09;99969.38;106856;1264;59969;-40
2023/03/01 02:27:24;;;;;;;18.40;11.40;;;;;;;-3.09;71.95;99963.88;106852;1263;61199;-40
2023/03/01 02:29:53;;;;;;;19.50;11.50;;;;;;;-3.12;72.18;99955.75;106858;1263;74352;-40
2023/03/01 02:32:24;;;;;;;18.90;11.20;;;;;;;-3.14;72.12;99949.48;107322;1257;69922;-40
2023/03/01 02:34:54;;;;;;;17.90;11.20;;;;;;;-3.12;72.21;99942.17;107062;1257;73869;-40
2023/03/01 02:37:24;;;;;;;21.20;11.50;;;;;;;-3.05;72.09;99941.85;107293;1257;60725;-40
2023/03/01 02:40:04;;;;;;;20.90;11.80;;;;;;;-3.00;71.98;99946.86;107264;1257;61202;-40
2023/03/01 02:42:35;;;;;;;18.80;11.90;;;;;;;-2.99;71.93;99952.33;107307;1257;72113;-40
2023/03/01 02:45:05;;;;;;;19.00;11.60;;;;;;;-3.01;71.92;99949.83;107093;1257;67802;-40
2023/03/01 02:47:36;;;;;;;17.50;11.00;;;;;;;-3.02;71.88;99946.11;107333;1257;71383;-40
2023/03/01 02:50:31;;;;;;;17.30;11.50;;;;;;;-3.06;71.96;99946.63;107274;1257;61883;-40
2023/03/01 02:53:11;;;;;;;19.10;11.30;;;;;;;-3.02;71.94;99948.30;107080;1257;61136;-40
2023/03/01 02:55:39;;;;;;;16.30;8.60;;;;;;;-2.99;71.97;99947.83;107285;1257;74207;-40
2023/03/01 02:58:08;;;;;;;18.10;11.20;;;;;;;-2.99;71.91;99946.60;107264;1257;67783;-40
2023/03/01 03:00:39;;;;;;;18.30;11.70;;;;;;;-2.99;71.93;99943.11;107166;1257;73948;-40
2023/03/01 03:03:09;;;;;;;17.60;11.30;;;;;;;-3.07;71.61;99925.50;107282;1256;59682;-40
2023/03/01 03:05:39;;;;;;;21.00;11.80;;;;;;;-2.99;71.54;99928.25;107279;1257;60175;-40
2023/03/01 03:08:07;;;;;;;16.70;11.20;;;;;;;-2.92;71.55;99922.78;107278;1260;74231;-40
2023/03/01 03:10:40;;;;;;;17.00;10.90;;;;;;;-2.85;71.20;99915.97;107378;1258;69484;-40
2023/03/01 03:13:10;;;;;;;18.20;10.60;;;;;;;-2.82;71.19;99906.43;107214;1257;73894;-40
2023/03/01 03:15:40;;;;;;;17.40;10.90;;;;;;;-2.83;70.97;99890.88;107221;1256;59601;-40
2023/03/01 03:18:11;;;;;;;19.40;11.80;;;;;;;-2.81;70.81;99885.46;107242;1256;61493;-40
2023/03/01 03:20:40;;;;;;;22.20;12.60;;;;;;;-2.80;70.85;99882.56;107343;1256;74132;-40
2023/03/01 03:23:08;;;;;;;20.10;11.70;;;;;;;-2.75;70.69;99880.48;107374;1257;69974;-41
2023/03/01 03:25:37;;;;;;;18.50;10.80;;;;;;;-2.67;70.71;99883.35;107326;1257;73860;-39
2023/03/01 03:28:09;;;;;;;18.80;11.80;;;;;;;-2.65;70.38;99886.44;107356;1257;59525;-41
2023/03/01 03:30:39;;;;;;;19.40;11.40;;;;;;;-2.65;70.45;99890.59;107359;1257;61534;-41
2023/03/01 03:33:09;;;;;;;20.60;11.50;;;;;;;-2.64;70.26;99896.10;107382;1256;74203;-39
2023/03/01 03:35:45;;;;;;;18.10;11.40;;;;;;;-2.63;70.38;99894.99;106591;1260;1003622;-39
2023/03/01 03:38:16;;;;;;;17.90;11.10;;;;;;;-2.65;70.29;99897.27;107340;1257;72729;-39
2023/03/01 03:40:48;;;;;;;17.00;10.50;;;;;;;-2.58;70.04;99896.71;107288;1257;60557;-40
2023/03/01 03:43:19;;;;;;;18.70;11.40;;;;;;;-2.49;69.94;99892.34;107341;1257;59509;-40
2023/03/01 03:45:49;;;;;;;18.00;10.20;;;;;;;-2.46;69.65;99883.75;107291;1257;73981;-40
2023/03/01 03:48:18;;;;;;;18.60;11.60;;;;;;;-2.45;69.68;99888.21;107300;1257;69968;-40
2023/03/01 03:50:50;;;;;;;22.00;12.50;;;;;;;-2.44;69.60;99887.42;107373;1257;73888;-40
2023/03/01 03:53:19;;;;;;;18.60;11.30;;;;;;;-2.42;69.37;99887.80;107297;1257;59649;-40
2023/03/01 03:55:51;;;;;;;20.00;12.00;;;;;;;-2.43;69.42;99885.94;107286;1257;61529;-40
2023/03/01 03:58:21;;;;;;;18.00;10.90;;;;;;;-2.39;69.23;99883.45;107283;1257;73934;-40
2023/03/01 04:00:52;;;;;;;20.40;12.40;;;;;;;-2.34;68.96;99871.84;107282;1260;69623;-40
2023/03/01 04:03:22;;;;;;;19.90;11.60;;;;;;;-2.33;69.06;99869.71;107118;1257;71972;-40
2023/03/01 04:05:50;;;;;;;21.20;11.60;;;;;;;-2.33;68.89;99874.00;107050;1262;59762;-40
2023/03/01 04:08:21;;;;;;;19.30;11.70;;;;;;;-2.36;68.92;99873.90;107241;1257;61720;-40
2023/03/01 04:10:52;;;;;;;22.20;11.30;;;;;;;-2.38;68.93;99875.92;107261;1257;74190;-40
2023/03/01 04:13:26;;;;;;;20.20;11.50;;;;;;;-2.38;69.14;99875.06;107219;1257;69750;-40
2023/03/01 04:15:55;;;;;;;16.30;10.90;;;;;;;-2.33;69.19;99871.41;107239;1257;73674;-40
2023/03/01 04:18:24;;;;;;;19.60;11.80;;;;;;;-2.29;68.98;99869.99;106353;1262;1003598;-40
2023/03/01 04:20:55;;;;;;;19.40;11.70;;;;;;;-2.29;68.97;99865.58;107164;1257;62411;-40
2023/03/01 04:23:24;;;;;;;18.10;11.80;;;;;;;-2.31;69.05;99863.83;107245;1257;74500;-39
2023/03/01 04:25:58;;;;;;;21.40;13.00;;;;;;;-2.33;69.12;99860.30;107254;1262;70041;-40
2023/03/01 04:28:39;;;;;;;15.80;9.20;;;;;;;-2.36;69.19;99853.40;107220;1257;73886;-40
2023/03/01 04:31:35;;;;;;;18.40;11.50;;;;;;;-2.33;69.28;99853.83;107147;1257;61261;-40
2023/03/01 04:34:04;;;;;;;20.10;12.20;;;;;;;-2.28;69.28;99853.41;107222;1257;61670;-40
2023/03/01 04:36:35;;;;;;;18.20;11.40;;;;;;;-2.28;69.26;99852.41;107246;1257;74351;-40
2023/03/01 04:39:11;;;;;;;18.30;11.00;;;;;;;-2.26;69.37;99857.24;107213;1257;68991;-40
2023/03/01 04:41:40;;;;;;;20.40;12.10;;;;;;;-2.28;69.20;99854.69;107252;1257;72959;-40
2023/03/01 04:44:09;;;;;;;17.90;11.30;;;;;;;-2.31;69.24;99855.96;107232;1263;60632;-40
2023/03/01 04:46:38;;;;;;;15.30;8.80;;;;;;;-2.34;69.47;99861.21;106456;1257;1002829;-40
2023/03/01 04:49:06;;;;;;;20.30;12.60;;;;;;;-2.31;69.31;99862.60;106412;1258;1003542;-40
2023/03/01 04:51:35;;;;;;;16.70;11.10;;;;;;;-2.28;69.41;99866.21;107205;1257;68503;-40
2023/03/01 04:54:08;;;;;;;22.80;12.70;;;;;;;-2.27;69.43;99868.88;107220;1257;73900;-40
2023/03/01 04:56:37;;;;;;;22.50;12.60;;;;;;;-2.28;69.30;99874.98;107170;1257;59646;-40
2023/03/01 04:59:07;;;;;;;19.80;11.70;;;;;;;-2.27;69.48;99877.54;106339;1257;1003391;-40
2023/03/01 05:01:38;;;;;;;19.50;11.20;;;;;;;-2.23;69.62;99879.50;107157;1257;74033;-40
2023/03/01 05:04:07;;;;;;;19.20;11.70;;;;;;;-2.12;69.35;99879.63;107121;1257;69904;-40
2023/03/01 05:06:37;;;;;;;17.00;11.50;;;;;;;-2.06;69.09;99875.23;107096;1257;73670;-40
2023/03/01 05:09:06;;;;;;;22.60;11.60;;;;;;;-2.06;69.17;99875.87;107202;1257;59679;-40
2023/03/01 05:11:35;;;;;;;17.20;11.10;;;;;;;-2.06;69.27;99872.36;107113;1261;61294;-40
2023/03/01 05:14:05;;;;;;;19.60;11.10;;;;;;;-2.06;69.28;99870.98;107545;1254;74233;-40
2023/03/01 05:16:34;;;;;;;16.80;11.10;;;;;;;-2.07;69.33;99875.97;107552;1254;68923;-40
2023/03/01 05:19:11;;;;;;;15.80;10.40;;;;;;;-1.99;69.23;99885.17;107551;1258;73609;-40
2023/03/01 05:22:01;;;;;;;19.00;11.20;;;;;;;-1.95;69.22;99892.19;107517;1257;60649;-40
2023/03/01 05:24:32;;;;;;;19.60;11.60;;;;;;;-1.95;69.13;99894.91;107582;1254;61775;-40
2023/03/01 05:27:01;;;;;;;18.10;11.70;;;;;;;-1.99;69.31;99900.11;107588;1255;75193;-40
2023/03/01 05:29:35;;;;;;;18.60;11.40;;;;;;;-1.98;69.42;99908.51;107589;1259;68047;-40
2023/03/01 05:32:04;;;;;;;18.10;11.20;;;;;;;-1.98;69.49;99909.95;107541;1257;73542;-40
2023/03/01 05:34:35;;;;;;;17.20;11.10;;;;;;;-1.93;69.39;99900.59;107530;1258;60856;-40
2023/03/01 05:37:04;;;;;;;18.10;11.70;;;;;;;-1.88;69.30;99896.24;107540;1254;61321;-40
2023/03/01 05:39:33;;;;;;;19.50;12.20;;;;;;;-1.87;69.11;99889.17;107598;1254;75088;-40
2023/03/01 05:42:01;;;;;;;19.10;12.30;;;;;;;-1.87;69.25;99891.83;107566;1260;69873;-40
2023/03/01 05:44:30;;;;;;;16.70;11.40;;;;;;;-1.85;69.33;99897.10;107601;1254;73927;-40
2023/03/01 05:46:59;;;;;;;18.90;11.80;;;;;;;-1.86;69.35;99888.13;107520;1254;62380;-40
2023/03/01 05:49:27;;;;;;;16.30;11.20;;;;;;;-1.79;69.50;99882.17;107601;1254;61628;-40
2023/03/01 05:51:56;;;;;;;18.90;11.80;;;;;;;-1.70;69.44;99883.92;107502;1254;74022;-40
2023/03/01 05:54:24;;;;;;;19.20;11.60;;;;;;;-1.65;69.47;99886.79;107545;1255;69804;-40
2023/03/01 05:56:53;;;;;;;15.80;10.80;;;;;;;-1.62;69.58;99888.38;107466;1259;73848;-40
2023/03/01 05:59:22;;;;;;;19.30;11.90;;;;;;;-1.58;69.63;99889.25;107501;1259;60164;-40
2023/03/01 06:01:50;;;;;;;18.50;11.90;;;;;;;-1.56;69.55;99892.10;107537;1258;61532;-40
2023/03/01 06:04:18;;;;;;;16.60;11.30;;;;;;;-1.47;69.69;99895.19;106851;1254;1002956;-41
2023/03/01 06:06:47;;;;;;;21.00;12.20;;;;;;;-1.35;69.79;99901.40;107585;1258;70052;-40
2023/03/01 06:09:19;;;;;;;20.80;12.70;;;;;;;-1.28;69.45;99900.34;107538;1259;71720;-40
2023/03/01 06:11:47;;;;;;;21.40;11.60;;;;;;;-1.23;69.44;99901.75;107493;1254;60297;-40
2023/03/01 06:14:16;;;;;;;16.70;11.60;;;;;;;-1.20;69.27;99888.03;107544;1254;61503;-39
2023/03/01 06:16:47;;;;;;;20.90;11.50;;;;;;;-1.18;69.20;99891.00;107526;1255;75030;-39
2023/03/01 06:19:16;;;;;;;17.60;11.70;;;;;;;-1.16;69.16;99892.16;107561;1258;70015;-39
2023/03/01 06:21:44;;;;;;;19.40;11.70;;;;;;;-1.10;69.17;99902.70;107533;1258;73751;-39
2023/03/01 06:24:13;;;;;;;19.80;12.30;;;;;;;-1.06;69.21;99908.54;107548;1259;60562;-39
2023/03/01 06:26:41;;;;;;;18.00;11.60;;;;;;;-1.04;69.48;99910.39;107514;1254;60543;-39
2023/03/01 06:29:10;;;;;;;17.70;11.50;;;;;;;-0.99;69.26;99915.28;107547;1259;73600;-40
2023/03/01 06:31:40;;;;;;;17.60;12.00;;;;;;;-0.97;68.98;99915.86;106812;1253;1003673;-39
2023/03/01 06:34:08;;;;;;;18.40;11.40;;;;;;;-0.94;69.01;99915.06;107515;1254;73840;-39
2023/03/01 06:36:36;;;;;;;18.90;12.50;;;;;;;-0.85;69.07;99915.04;107563;1253;60594;-39
2023/03/01 06:39:07;;;;;;;19.20;10.90;;;;;;;-0.77;68.88;99915.16;107589;1257;61449;-39
2023/03/01 06:41:36;;;;;;;14.70;9.00;;;;;;;-0.69;68.99;99919.19;107521;1257;75195;-39
2023/03/01 06:44:04;;;;;;;22.00;12.30;;;;;;;-0.65;68.57;99917.42;107488;1254;68736;-40
2023/03/01 06:46:32;;;;;;;17.10;11.90;;;;;;;-0.61;68.57;99913.89;107459;1259;73923;-40
2023/03/01 06:49:04;;;;;;;19.10;11.90;;;;;;;-0.56;68.71;99912.70;107516;1254;60534;-39
2023/03/01 06:51:33;;;;;;;18.80;11.60;;;;;;;-0.54;68.20;99912.63;107508;1254;61250;-39
2023/03/01 06:54:01;;;;;;;18.30;11.60;;;;;;;-0.49;68.23;99916.45;107554;1257;75030;-40
2023/03/01 06:56:31;;;;;;;20.20;11.60;;;;;;;-0.43;68.09;99918.88;107540;1254;69592;-39
2023/03/01 06:59:00;;;;;;;;;;;;;;;-0.37;68.01;99915.17;107546;1258;73556;-40
2023/03/01 07:01:29;;;;;;;16.30;10.80;;;;;;;-0.38;68.18;99915.02;107504;1259;60625;-39
2023/03/01 07:03:57;;;;;;;20.00;12.10;;;;;;;-0.35;67.96;99910.16;106842;1259;1003742;-39
2023/03/01 07:06:26;;;;;;;18.10;12.40;;;;;;;-0.30;67.67;99919.61;107588;1254;75029;-39
2023/03/01 07:08:54;;;;;;;19.30;11.80;;;;;;;-0.27;67.64;99922.58;107557;1258;69926;-39
2023/03/01 07:11:23;;;;;;;16.30;11.10;;;;;;;-0.19;67.44;99921.91;107522;1258;72853;-39
2023/03/01 07:13:55;;;;;;;16.50;10.70;;;;;;;-0.07;67.24;99921.24;107504;1255;60874;-40
2023/03/01 07:16:24;;;;;;;16.80;11.90;;;;;;;-0.00;67.00;99924.14;107524;1259;62289;-40
2023/03/01 07:18:52;;;;;;;19.30;11.50;;;;;;;0.02;66.73;99925.80;107528;1255;75036;-40
2023/03/01 07:21:20;;;;;;;18.90;12.40;;;;;;;0.00;66.71;99925.58;107492;1260;68912;-39
2023/03/01 07:23:49;;;;;;;20.30;11.80;;;;;;;-0.01;66.61;99925.70;107463;1259;73899;-40
2023/03/01 07:26:20;;;;;;;19.50;12.30;;;;;;;-0.04;66.75;99920.27;107524;1254;59422;-40
2023/03/01 07:28:48;;;;;;;20.40;11.30;;;;;;;-0.05;66.75;99919.05;107528;1259;60424;-40
2023/03/01 07:31:17;;;;;;;15.80;11.40;;;;;;;0.02;66.70;99921.19;107499;1253;75027;-40
2023/03/01 07:33:46;;;;;;;15.50;10.10;;;;;;;0.07;66.63;99924.27;107549;1259;70024;-41
2023/03/01 07:36:14;;;;;;;20.30;12.80;;;;;;;0.07;66.70;99917.21;107496;1260;73918;-41
2023/03/01 07:38:44;;;;;;;25.40;13.00;;;;;;;0.05;66.72;99920.54;106773;1257;1003484;-39
2023/03/01 07:41:12;;;;;;;20.70;12.60;;;;;;;0.04;66.56;99919.38;107534;1258;61389;-38
2023/03/01 07:43:42;;;;;;;24.40;12.90;;;;;;;0.05;66.47;99916.10;107456;1254;72910;-40
2023/03/01 07:46:11;;;;;;;17.90;12.00;;;;;;;0.12;66.77;99913.34;107540;1254;70032;-40
2023/03/01 07:48:39;;;;;;;16.60;11.60;;;;;;;0.21;66.63;99912.32;107499;1258;72796;-40
2023/03/01 07:51:09;;;;;;;19.60;12.90;;;;;;;0.25;66.98;99916.83;107528;1259;59764;-40
2023/03/01 07:53:38;;;;;;;19.80;12.80;;;;;;;0.27;67.22;99910.00;107484;1259;60331;-40
2023/03/01 07:56:11;;;;;;;18.70;12.70;;;;;;;0.31;67.37;99912.09;107511;1255;74939;-40
2023/03/01 07:58:41;;;;;;;20.70;13.80;;;;;;;0.36;67.56;99913.16;107558;1254;67914;-40
2023/03/01 08:01:12;;;;;;;18.30;11.70;;;;;;;0.46;67.28;99912.14;107424;1255;73940;-40
2023/03/01 08:03:40;;;;;;;20.70;12.30;;;;;;;0.64;67.17;99912.03;107459;1254;60427;-40
2023/03/01 08:06:09;;;;;;;17.90;12.10;;;;;;;0.78;66.59;99913.94;107439;1254;61529;-40
2023/03/01 08:08:38;;;;;;;14.10;9.50;;;;;;;0.83;65.96;99907.33;107519;1254;75058;-40
2023/03/01 08:11:07;;;;;;;18.10;12.50;;;;;;;0.88;66.25;99911.92;107576;1254;68744;-40
2023/03/01 08:13:57;;;;;;;21.00;12.70;;;;;;;0.98;65.89;99907.18;107508;1257;74301;-40
2023/03/01 08:16:26;;;;;;;19.20;11.90;;;;;;;1.06;65.68;99908.75;107484;1254;60332;-40
2023/03/01 08:18:56;;;;;;;19.70;11.60;;;;;;;1.14;65.37;99905.52;107501;1257;60288;-40
2023/03/01 08:21:25;;;;;;;;;;;;;;;1.23;64.73;99906.48;107487;1253;76146;-40
2023/03/01 08:23:53;;;;;;;19.60;12.50;;;;;;;1.19;64.48;99911.23;107522;1255;69967;-40
2023/03/01 08:26:22;;;;;;;17.60;11.80;;;;;;;1.11;64.94;99913.99;107513;1257;73859;-40
2023/03/01 08:28:51;;;;;;;18.70;12.70;;;;;;;1.10;64.74;99918.48;107518;1254;60722;-40
2023/03/01 08:31:19;;;;;;;18.00;12.80;;;;;;;1.12;64.74;99918.79;106837;1253;1003215;-40
2023/03/01 08:33:51;;;;;;;21.60;11.90;;;;;;;1.14;65.19;99917.73;107486;1254;74053;-40
2023/03/01 08:36:21;;;;;;;17.00;11.60;;;;;;;1.20;64.89;99916.77;107530;1254;68755;-40
2023/03/01 08:38:49;;;;;;;18.30;11.80;;;;;;;1.27;64.79;99910.83;107506;1254;72544;-40
2023/03/01 08:41:18;;;;;;;17.80;12.80;;;;;;;1.31;64.52;99911.20;107516;1258;60704;-40
2023/03/01 08:43:46;;;;;;;19.30;12.50;;;;;;;1.28;64.58;99911.61;107473;1254;61509;-40
2023/03/01 08:46:15;;;;;;;19.40;12.80;;;;;;;1.25;64.57;99915.81;107460;1257;75058;-40
2023/03/01 08:48:43;;;;;;;17.60;12.60;;;;;;;1.22;64.52;99918.89;107483;1255;69951;-40
2023/03/01 08:51:16;;;;;;;18.40;12.50;;;;;;;1.18;64.79;99921.02;107458;1254;73825;-40
2023/03/01 08:53:46;;;;;;;18.80;12.40;;;;;;;1.14;64.94;99919.03;107534;1255;60411;-40
2023/03/01 08:56:15;;;;;;;19.30;11.80;;;;;;;1.15;65.51;99909.61;107532;1254;61551;-40
2023/03/01 08:58:47;;;;;;;18.30;12.20;;;;;;;1.23;65.20;99900.77;107495;1255;75040;-40
2023/03/01 09:01:17;;;;;;;15.60;11.50;;;;;;;1.33;65.17;99904.07;107501;1254;69335;-40
2023/03/01 09:03:46;;;;;;;17.80;12.20;;;;;;;1.44;65.36;99902.89;107512;1257;72322;-40
2023/03/01 09:06:16;;;;;;;20.00;12.70;;;;;;;1.52;64.90;99902.73;107531;1254;60177;-40
2023/03/01 09:08:55;;;;;;;18.60;12.60;;;;;;;1.54;64.59;99902.05;107485;1255;61567;-40
2023/03/01 09:11:24;;;;;;;18.70;13.00;;;;;;;1.56;64.90;99903.58;107536;1254;73208;-40
2023/03/01 09:13:55;;;;;;;16.70;12.00;;;;;;;1.58;64.69;99906.70;107472;1254;69944;-40
2023/03/01 09:16:24;;;;;;;18.80;11.60;;;;;;;1.65;64.86;99912.02;107492;1254;73894;-40
2023/03/01 09:18:53;;;;;;;16.40;11.20;;;;;;;1.77;64.58;99914.43;107490;1258;60761;-40
2023/03/01 09:21:25;;;;;;;18.80;12.20;;;;;;;1.76;64.52;99920.64;107488;1254;60294;-39
2023/03/01 09:24:13;;;;;;;18.40;12.50;;;;;;;1.76;64.74;99918.14;107444;1254;74027;-40
2023/03/01 09:26:46;;;;;;;18.60;11.80;;;;;;;1.82;64.83;99918.32;107527;1254;69751;-39
2023/03/01 09:29:17;;;;;;;19.90;12.50;;;;;;;1.86;64.49;99919.07;107457;1254;73821;-39
2023/03/01 09:31:46;;;;;;;20.80;12.60;;;;;;;1.88;64.57;99921.67;107448;1257;60533;-40
2023/03/01 09:34:19;;;;;;;16.80;11.40;;;;;;;1.88;64.66;99921.30;107499;1258;61374;-40
2023/03/01 09:36:47;;;;;;;15.60;11.10;;;;;;;1.88;64.66;99920.96;107467;1253;75035;-40
2023/03/01 09:39:17;;;;;;;18.30;11.30;;;;;;;1.96;64.86;99924.05;107476;1254;70137;-40
2023/03/01 09:41:47;;;;;;;16.30;11.00;;;;;;;2.02;64.42;99923.55;107518;1257;72318;-40
2023/03/01 09:44:41;;;;;;;16.20;10.90;;;;;;;2.03;64.21;99921.49;107482;1254;60801;-40
2023/03/01 09:47:17;;;;;;;16.60;11.00;;;;;;;2.02;64.20;99915.63;107488;1253;61407;-40
2023/03/01 09:50:14;;;;;;;17.20;11.30;;;;;;;1.97;64.35;99917.27;107500;1257;72847;-40
2023/03/01 09:53:13;;;;;;;17.10;11.00;;;;;;;1.96;64.61;99908.66;107438;1254;70034;-40
2023/03/01 09:55:51;;;;;;;15.20;10.70;;;;;;;1.89;65.00;99897.39;107425;1254;73793;-40
2023/03/01 09:58:41;;;;;;;18.60;11.00;;;;;;;1.99;64.82;99902.41;107478;1254;62427;-40
2023/03/01 10:01:35;;;;;;;20.30;12.20;;;;;;;2.06;64.87;99898.92;106702;1255;1003854;-39
2023/03/01 10:04:27;;;;;;;18.30;12.10;;;;;;;2.15;64.96;99898.00;107400;1254;75093;-40
2023/03/01 10:07:06;;;;;;;15.80;10.00;;;;;;;2.33;64.57;99894.27;107404;1254;69936;-40
2023/03/01 10:09:40;;;;;;;15.70;10.30;;;;;;;2.53;64.27;99898.96;107478;1255;72508;-39
2023/03/01 10:12:17;;;;;;;12.50;9.80;;;;;;;2.68;63.05;99888.97;107548;1254;60783;-40
2023/03/01 10:15:18;;;;;;;15.50;10.20;;;;;;;2.73;63.01;99886.93;107500;1254;61383;-39
2023/03/01 10:17:51;;;;;;;13.70;10.00;;;;;;;2.83;62.98;99885.48;107441;1253;74003;-40
2023/03/01 10:20:33;;;;;;;14.40;9.80;;;;;;;2.95;62.61;99886.91;107488;1254;70393;-40
2023/03/01 10:23:02;;;;;;;16.10;9.80;;;;;;;3.03;62.02;99890.51;107415;1254;73101;-40
2023/03/01 10:25:38;;;;;;;;;;;;;;;3.02;61.89;99895.58;105811;1260;1003326;-40
2023/03/01 10:28:46;;;;;;;14.90;9.80;;;;;;;2.94;62.22;99899.46;107525;1254;61050;-40
2023/03/01 10:31:18;;;;;;;13.50;9.10;;;;;;;2.93;62.12;99899.65;107380;1254;75073;-40
2023/03/01 10:33:51;;;;;;;14.80;9.50;;;;;;;2.86;62.31;99886.52;107522;1254;69959;-40
2023/03/01 10:36:20;;;;;;;16.40;10.30;;;;;;;2.93;62.41;99896.34;107474;1254;73775;-40
2023/03/01 10:38:53;;;;;;;17.00;11.00;;;;;;;2.95;62.26;99899.29;107518;1254;60783;-40
2023/03/01 10:41:25;;;;;;;14.70;9.50;;;;;;;2.94;62.08;99895.63;107451;1254;60408;-40
2023/03/01 10:43:57;;;;;;;15.50;11.20;;;;;;;2.91;62.02;99898.79;107489;1254;75316;-40
2023/03/01 10:46:32;;;;;;;13.60;9.40;;;;;;;2.83;62.23;99901.40;107487;1254;67032;-40
2023/03/01 10:49:16;;;;;;;15.20;9.30;;;;;;;2.72;62.09;99903.77;107487;1254;73768;-40
2023/03/01 10:51:47;;;;;;;13.90;9.60;;;;;;;2.72;62.48;99904.63;107493;1254;60498;-40
2023/03/01 10:54:19;;;;;;;16.60;10.30;;;;;;;2.76;62.91;99898.84;107507;1254;60300;-40
2023/03/01 10:56:53;;;;;;;15.40;10.10;;;;;;;2.78;62.76;99898.91;107373;1254;74773;-40
2023/03/01 10:59:32;;;;;;;13.50;9.70;;;;;;;2.81;62.94;99898.48;107412;1254;67836;-40
2023/03/01 11:02:17;;;;;;;15.50;10.10;;;;;;;2.82;62.79;99896.69;107426;1254;73676;-40
2023/03/01 11:04:57;;;;;;;16.00;9.70;;;;;;;2.80;62.94;99892.23;107427;1254;61071;-40
2023/03/01 11:07:26;;;;;;;16.40;10.00;;;;;;;2.79;62.84;99891.65;107465;1254;61550;-40
2023/03/01 11:10:11;;;;;;;15.60;9.40;;;;;;;2.81;62.95;99891.63;107485;1257;74710;-40
2023/03/01 11:12:40;;;;;;;15.30;10.50;;;;;;;2.83;63.09;99892.49;107506;1259;69678;-40
2023/03/01 11:15:23;;;;;;;14.20;9.40;;;;;;;2.77;62.63;99881.73;107467;1254;73519;-40
2023/03/01 11:17:53;;;;;;;12.20;9.00;;;;;;;2.87;62.81;99890.23;107508;1254;61446;-40
2023/03/01 11:20:36;;;;;;;16.20;9.60;;;;;;;2.89;62.43;99888.38;107400;1254;61551;-40
2023/03/01 11:23:08;;;;;;;13.10;9.30;;;;;;;2.84;62.41;99889.76;107395;1254;74967;-40
2023/03/01 11:25:39;;;;;;;14.60;9.50;;;;;;;2.77;62.51;99885.59;107392;1254;69630;-40
2023/03/01 11:28:17;;;;;;;14.50;8.60;;;;;;;2.72;62.94;99898.41;107442;1254;73235;-40
2023/03/01 11:30:57;;;;;;;14.40;8.80;;;;;;;2.71;62.95;99898.33;107488;1254;60761;-40
2023/03/01 11:33:36;;;;;;;14.30;9.80;;;;;;;2.70;63.15;99897.23;107453;1254;61219;-40
2023/03/01 11:36:06;;;;;;;15.80;9.90;;;;;;;2.69;63.45;99902.87;107504;1253;75109;-40